sensor_id;sensor_type;location;lat;lon;timestamp;pressure;altitude;pressure_sealevel;temperature;humidity
76166;BME280;65085;46.718;20.136;2023-02-11T00:00:37;102921.25;;;-3.85;72.32
76166;BME280;65085;46.718;20.136;2023-02-11T00:03:40;102923.78;;;-3.90;73.72
76166;BME280;65085;46.718;20.136;2023-02-11T00:06:43;102926.47;;;-3.97;73.09
76166;BME280;65085;46.718;20.136;2023-02-11T00:09:46;102912.59;;;-3.99;73.85
76166;BME280;65085;46.718;20.136;2023-02-11T00:12:48;102911.44;;;-4.03;74.35
76166;BME280;65085;46.718;20.136;2023-02-11T00:15:53;102899.81;;;-4.08;73.68
76166;BME280;65085;46.718;20.136;2023-02-11T00:18:58;102908.44;;;-4.13;73.79
76166;BME280;65085;46.718;20.136;2023-02-11T00:22:01;102907.28;;;-4.17;73.77
76166;BME280;65085;46.718;20.136;2023-02-11T00:25:04;102909.06;;;-4.11;72.96
76166;BME280;65085;46.718;20.136;2023-02-11T00:28:08;102899.25;;;-4.10;73.51
76166;BME280;65085;46.718;20.136;2023-02-11T00:31:13;102893.66;;;-4.02;72.91
76166;BME280;65085;46.718;20.136;2023-02-11T00:34:16;102898.81;;;-4.07;72.23
76166;BME280;65085;46.718;20.136;2023-02-11T00:37:19;102895.50;;;-4.03;72.29
76166;BME280;65085;46.718;20.136;2023-02-11T00:40:22;102898.44;;;-4.11;71.87
76166;BME280;65085;46.718;20.136;2023-02-11T00:43:25;102895.56;;;-4.09;72.05
76166;BME280;65085;46.718;20.136;2023-02-11T00:46:29;102898.44;;;-4.11;72.10
76166;BME280;65085;46.718;20.136;2023-02-11T00:49:32;102895.78;;;-4.11;71.63
76166;BME280;65085;46.718;20.136;2023-02-11T00:52:35;102889.81;;;-4.06;70.93
76166;BME280;65085;46.718;20.136;2023-02-11T00:55:38;102890.59;;;-3.99;72.08
76166;BME280;65085;46.718;20.136;2023-02-11T00:58:41;102880.53;;;-3.97;71.56
76166;BME280;65085;46.718;20.136;2023-02-11T01:01:46;102877.22;;;-3.93;70.73
76166;BME280;65085;46.718;20.136;2023-02-11T01:04:49;102879.44;;;-3.90;70.82
76166;BME280;65085;46.718;20.136;2023-02-11T01:07:52;102873.25;;;-3.84;70.01
76166;BME280;65085;46.718;20.136;2023-02-11T01:10:56;102867.78;;;-3.89;70.39
76166;BME280;65085;46.718;20.136;2023-02-11T01:13:59;102859.81;;;-3.89;70.69
76166;BME280;65085;46.718;20.136;2023-02-11T01:17:04;102861.00;;;-3.85;70.08
76166;BME280;65085;46.718;20.136;2023-02-11T01:20:12;102859.31;;;-3.79;69.68
76166;BME280;65085;46.718;20.136;2023-02-11T01:23:16;102864.38;;;-3.96;70.35
76166;BME280;65085;46.718;20.136;2023-02-11T01:26:18;102852.66;;;-4.06;71.64
76166;BME280;65085;46.718;20.136;2023-02-11T01:29:21;102854.00;;;-3.97;70.68
76166;BME280;65085;46.718;20.136;2023-02-11T01:32:25;102837.50;;;-3.99;70.59
76166;BME280;65085;46.718;20.136;2023-02-11T01:35:28;102853.25;;;-4.04;71.66
76166;BME280;65085;46.718;20.136;2023-02-11T01:38:31;102841.69;;;-4.10;71.08
76166;BME280;65085;46.718;20.136;2023-02-11T01:41:53;102839.53;;;-4.01;70.40
76166;BME280;65085;46.718;20.136;2023-02-11T01:44:56;102836.28;;;-4.03;70.78
76166;BME280;65085;46.718;20.136;2023-02-11T01:48:01;102832.38;;;-4.19;72.63
76166;BME280;65085;46.718;20.136;2023-02-11T01:51:06;102829.69;;;-4.37;72.88
76166;BME280;65085;46.718;20.136;2023-02-11T01:54:13;102830.81;;;-4.26;72.60
76166;BME280;65085;46.718;20.136;2023-02-11T01:57:37;102826.69;;;-4.22;72.30
76166;BME280;65085;46.718;20.136;2023-02-11T02:00:41;102826.09;;;-4.24;72.64
76166;BME280;65085;46.718;20.136;2023-02-11T02:03:47;102821.50;;;-4.11;72.16
76166;BME280;65085;46.718;20.136;2023-02-11T02:06:59;102810.63;;;-4.09;71.24
76166;BME280;65085;46.718;20.136;2023-02-11T02:10:08;102811.09;;;-3.94;70.35
76166;BME280;65085;46.718;20.136;2023-02-11T02:13:13;102814.09;;;-3.91;70.21
76166;BME280;65085;46.718;20.136;2023-02-11T02:16:19;102800.69;;;-3.96;70.07
76166;BME280;65085;46.718;20.136;2023-02-11T02:23:23;102806.06;;;-4.02;71.28
76166;BME280;65085;46.718;20.136;2023-02-11T02:26:42;102805.19;;;-4.14;72.23
76166;BME280;65085;46.718;20.136;2023-02-11T02:30:29;102817.41;;;-4.13;71.80
76166;BME280;65085;46.718;20.136;2023-02-11T02:33:45;102808.63;;;-3.96;71.52
76166;BME280;65085;46.718;20.136;2023-02-11T02:36:57;102802.16;;;-4.00;71.67
76166;BME280;65085;46.718;20.136;2023-02-11T02:40:06;102799.38;;;-3.87;70.34
76166;BME280;65085;46.718;20.136;2023-02-11T02:43:11;102800.09;;;-3.98;70.90
76166;BME280;65085;46.718;20.136;2023-02-11T02:46:18;102789.56;;;-4.04;72.12
76166;BME280;65085;46.718;20.136;2023-02-11T02:49:22;102792.97;;;-4.15;72.05
76166;BME280;65085;46.718;20.136;2023-02-11T02:52:32;102785.66;;;-4.02;71.61
76166;BME280;65085;46.718;20.136;2023-02-11T02:55:45;102780.56;;;-4.03;71.70
76166;BME280;65085;46.718;20.136;2023-02-11T02:59:23;102782.38;;;-4.04;71.55
76166;BME280;65085;46.718;20.136;2023-02-11T03:02:34;102773.34;;;-4.14;71.85
76166;BME280;65085;46.718;20.136;2023-02-11T03:05:47;102776.41;;;-4.17;72.06
76166;BME280;65085;46.718;20.136;2023-02-11T03:08:56;102780.31;;;-4.20;72.35
76166;BME280;65085;46.718;20.136;2023-02-11T03:12:02;102787.50;;;-4.20;72.76
76166;BME280;65085;46.718;20.136;2023-02-11T03:15:06;102782.56;;;-4.17;72.60
76166;BME280;65085;46.718;20.136;2023-02-11T03:18:28;102784.31;;;-4.29;72.85
76166;BME280;65085;46.718;20.136;2023-02-11T03:21:35;102787.69;;;-4.40;72.71
76166;BME280;65085;46.718;20.136;2023-02-11T03:24:40;102790.06;;;-4.32;73.06
76166;BME280;65085;46.718;20.136;2023-02-11T03:27:52;102786.19;;;-4.36;74.44
76166;BME280;65085;46.718;20.136;2023-02-11T03:31:05;102789.88;;;-4.37;73.89
76166;BME280;65085;46.718;20.136;2023-02-11T03:34:13;102783.84;;;-4.44;73.99
76166;BME280;65085;46.718;20.136;2023-02-11T03:37:23;102787.00;;;-4.53;74.55
76166;BME280;65085;46.718;20.136;2023-02-11T03:40:31;102789.34;;;-4.63;75.59
76166;BME280;65085;46.718;20.136;2023-02-11T03:43:39;102783.28;;;-4.70;75.19
76166;BME280;65085;46.718;20.136;2023-02-11T03:46:47;102784.16;;;-4.76;75.32
76166;BME280;65085;46.718;20.136;2023-02-11T03:49:52;102780.53;;;-4.82;76.14
76166;BME280;65085;46.718;20.136;2023-02-11T03:52:58;102776.56;;;-4.73;75.61
76166;BME280;65085;46.718;20.136;2023-02-11T03:56:05;102771.84;;;-4.71;75.09
76166;BME280;65085;46.718;20.136;2023-02-11T03:59:10;102771.38;;;-4.86;76.17
76166;BME280;65085;46.718;20.136;2023-02-11T04:02:13;102761.69;;;-4.74;75.66
76166;BME280;65085;46.718;20.136;2023-02-11T04:05:15;102764.66;;;-4.64;75.31
76166;BME280;65085;46.718;20.136;2023-02-11T04:08:19;102763.25;;;-4.66;74.82
76166;BME280;65085;46.718;20.136;2023-02-11T04:11:22;102751.69;;;-4.72;75.05
76166;BME280;65085;46.718;20.136;2023-02-11T04:14:25;102746.59;;;-4.73;75.31
76166;BME280;65085;46.718;20.136;2023-02-11T04:17:28;102732.63;;;-4.62;75.29
76166;BME280;65085;46.718;20.136;2023-02-11T04:20:30;102736.81;;;-4.73;75.18
76166;BME280;65085;46.718;20.136;2023-02-11T04:23:34;102738.69;;;-4.80;75.26
76166;BME280;65085;46.718;20.136;2023-02-11T04:26:37;102739.16;;;-4.83;75.45
76166;BME280;65085;46.718;20.136;2023-02-11T04:29:40;102728.22;;;-4.93;75.67
76166;BME280;65085;46.718;20.136;2023-02-11T04:32:43;102724.00;;;-5.00;76.84
76166;BME280;65085;46.718;20.136;2023-02-11T04:35:45;102718.06;;;-4.96;75.72
76166;BME280;65085;46.718;20.136;2023-02-11T04:38:50;102714.38;;;-4.95;75.85
76166;BME280;65085;46.718;20.136;2023-02-11T04:41:52;102707.75;;;-4.86;75.02
76166;BME280;65085;46.718;20.136;2023-02-11T04:44:55;102708.78;;;-4.87;75.54
76166;BME280;65085;46.718;20.136;2023-02-11T04:47:58;102706.81;;;-4.91;74.95
76166;BME280;65085;46.718;20.136;2023-02-11T04:51:01;102701.94;;;-4.94;75.21
76166;BME280;65085;46.718;20.136;2023-02-11T04:54:05;102709.91;;;-4.94;76.20
76166;BME280;65085;46.718;20.136;2023-02-11T04:57:08;102709.16;;;-4.83;75.57
76166;BME280;65085;46.718;20.136;2023-02-11T05:00:12;102697.69;;;-4.77;75.67
76166;BME280;65085;46.718;20.136;2023-02-11T05:03:16;102692.69;;;-4.85;75.35
76166;BME280;65085;46.718;20.136;2023-02-11T05:06:18;102693.47;;;-4.85;76.36
76166;BME280;65085;46.718;20.136;2023-02-11T05:09:23;102694.75;;;-4.87;76.10
76166;BME280;65085;46.718;20.136;2023-02-11T05:12:25;102690.97;;;-4.98;77.13
76166;BME280;65085;46.718;20.136;2023-02-11T05:15:28;102696.38;;;-5.11;77.77
76166;BME280;65085;46.718;20.136;2023-02-11T05:18:31;102692.88;;;-5.05;77.66
76166;BME280;65085;46.718;20.136;2023-02-11T05:21:33;102691.06;;;-4.86;75.85
76166;BME280;65085;46.718;20.136;2023-02-11T05:24:38;102695.25;;;-4.79;75.40
76166;BME280;65085;46.718;20.136;2023-02-11T05:27:41;102696.38;;;-4.86;75.68
76166;BME280;65085;46.718;20.136;2023-02-11T05:30:43;102696.88;;;-4.78;76.15
76166;BME280;65085;46.718;20.136;2023-02-11T05:33:46;102693.00;;;-4.75;75.99
76166;BME280;65085;46.718;20.136;2023-02-11T05:36:49;102694.41;;;-4.73;75.84
76166;BME280;65085;46.718;20.136;2023-02-11T05:39:53;102691.88;;;-4.68;75.19
76166;BME280;65085;46.718;20.136;2023-02-11T05:42:56;102700.28;;;-4.71;76.19
76166;BME280;65085;46.718;20.136;2023-02-11T05:45:58;102705.78;;;-4.72;75.57
76166;BME280;65085;46.718;20.136;2023-02-11T05:49:01;102693.44;;;-4.78;76.25
76166;BME280;65085;46.718;20.136;2023-02-11T05:52:04;102702.81;;;-4.58;75.57
76166;BME280;65085;46.718;20.136;2023-02-11T05:55:08;102705.00;;;-4.55;75.71
76166;BME280;65085;46.718;20.136;2023-02-11T05:58:11;102706.03;;;-4.56;75.99
76166;BME280;65085;46.718;20.136;2023-02-11T06:01:15;102703.47;;;-4.62;75.51
76166;BME280;65085;46.718;20.136;2023-02-11T06:04:18;102697.25;;;-4.56;76.18
76166;BME280;65085;46.718;20.136;2023-02-11T06:07:20;102710.47;;;-4.50;75.30
76166;BME280;65085;46.718;20.136;2023-02-11T06:10:25;102709.16;;;-4.41;75.06
76166;BME280;65085;46.718;20.136;2023-02-11T06:13:28;102712.38;;;-4.39;75.39
76166;BME280;65085;46.718;20.136;2023-02-11T06:16:30;102718.81;;;-4.46;75.45
76166;BME280;65085;46.718;20.136;2023-02-11T06:19:33;102723.38;;;-4.35;75.67
76166;BME280;65085;46.718;20.136;2023-02-11T06:22:36;102723.81;;;-4.20;75.32
76166;BME280;65085;46.718;20.136;2023-02-11T06:25:41;102728.59;;;-4.11;75.13
76166;BME280;65085;46.718;20.136;2023-02-11T06:28:45;102725.78;;;-3.98;74.90
76166;BME280;65085;46.718;20.136;2023-02-11T06:31:48;102723.19;;;-3.86;74.74
76166;BME280;65085;46.718;20.136;2023-02-11T06:34:50;102735.09;;;-3.77;74.04
76166;BME280;65085;46.718;20.136;2023-02-11T06:37:53;102735.63;;;-3.69;74.62
76166;BME280;65085;46.718;20.136;2023-02-11T06:40:57;102736.50;;;-3.46;73.44
76166;BME280;65085;46.718;20.136;2023-02-11T06:44:00;102720.94;;;-3.31;72.24
76166;BME280;65085;46.718;20.136;2023-02-11T06:47:02;102714.19;;;-3.15;71.01
76166;BME280;65085;46.718;20.136;2023-02-11T06:50:07;102711.75;;;-3.05;69.88
76166;BME280;65085;46.718;20.136;2023-02-11T06:53:10;102719.25;;;-3.14;70.60
76166;BME280;65085;46.718;20.136;2023-02-11T06:56:15;102711.53;;;-3.04;70.46
76166;BME280;65085;46.718;20.136;2023-02-11T06:59:19;102708.53;;;-2.84;70.44
76166;BME280;65085;46.718;20.136;2023-02-11T07:02:22;102711.09;;;-2.55;69.73
76166;BME280;65085;46.718;20.136;2023-02-11T07:05:25;102700.50;;;-2.38;69.75
76166;BME280;65085;46.718;20.136;2023-02-11T07:08:28;102709.03;;;-2.25;69.01
76166;BME280;65085;46.718;20.136;2023-02-11T07:11:32;102691.56;;;-2.21;69.07
76166;BME280;65085;46.718;20.136;2023-02-11T07:14:35;102701.81;;;-2.01;68.40
76166;BME280;65085;46.718;20.136;2023-02-11T07:17:37;102700.25;;;-1.86;68.37
76166;BME280;65085;46.718;20.136;2023-02-11T07:20:40;102691.78;;;-1.55;67.02
76166;BME280;65085;46.718;20.136;2023-02-11T07:23:44;102699.75;;;-1.27;67.10
76166;BME280;65085;46.718;20.136;2023-02-11T07:26:48;102692.94;;;-1.01;66.59
76166;BME280;65085;46.718;20.136;2023-02-11T07:29:51;102701.03;;;-0.80;66.32
76166;BME280;65085;46.718;20.136;2023-02-11T07:32:55;102684.28;;;-0.75;65.83
76166;BME280;65085;46.718;20.136;2023-02-11T07:35:59;102692.84;;;-0.35;64.95
76166;BME280;65085;46.718;20.136;2023-02-11T07:39:02;102679.44;;;0.29;62.72
76166;BME280;65085;46.718;20.136;2023-02-11T07:42:07;102679.94;;;0.84;61.89
76166;BME280;65085;46.718;20.136;2023-02-11T07:45:10;102674.63;;;1.25;60.74
76166;BME280;65085;46.718;20.136;2023-02-11T07:48:14;102662.47;;;1.59;58.63
76166;BME280;65085;46.718;20.136;2023-02-11T07:51:19;102668.19;;;1.83;58.38
76166;BME280;65085;46.718;20.136;2023-02-11T07:54:22;102675.00;;;2.05;57.68
76166;BME280;65085;46.718;20.136;2023-02-11T07:57:26;102666.75;;;2.42;57.35
76166;BME280;65085;46.718;20.136;2023-02-11T08:00:29;102660.34;;;2.88;55.95
76166;BME280;65085;46.718;20.136;2023-02-11T08:03:32;102661.38;;;3.17;55.37
76166;BME280;65085;46.718;20.136;2023-02-11T08:06:39;102653.59;;;3.10;54.44
76166;BME280;65085;46.718;20.136;2023-02-11T08:09:43;102651.97;;;3.19;55.11
76166;BME280;65085;46.718;20.136;2023-02-11T08:12:48;102652.72;;;3.39;54.40
76166;BME280;65085;46.718;20.136;2023-02-11T08:15:50;102656.03;;;3.85;53.89
76166;BME280;65085;46.718;20.136;2023-02-11T08:18:55;102658.72;;;3.90;52.79
76166;BME280;65085;46.718;20.136;2023-02-11T08:21:59;102662.53;;;4.27;51.76
76166;BME280;65085;46.718;20.136;2023-02-11T08:25:03;102655.34;;;4.56;50.40
76166;BME280;65085;46.718;20.136;2023-02-11T08:28:07;102649.47;;;4.49;51.04
76166;BME280;65085;46.718;20.136;2023-02-11T08:31:12;102647.28;;;4.56;51.03
76166;BME280;65085;46.718;20.136;2023-02-11T08:34:16;102650.00;;;4.85;50.93
76166;BME280;65085;46.718;20.136;2023-02-11T08:37:21;102652.25;;;5.30;49.56
76166;BME280;65085;46.718;20.136;2023-02-11T08:40:24;102656.88;;;5.24;49.70
76166;BME280;65085;46.718;20.136;2023-02-11T08:43:28;102656.25;;;5.32;49.16
76166;BME280;65085;46.718;20.136;2023-02-11T08:46:31;102656.34;;;6.16;47.55
76166;BME280;65085;46.718;20.136;2023-02-11T08:49:34;102653.25;;;6.23;47.28
76166;BME280;65085;46.718;20.136;2023-02-11T08:52:38;102657.34;;;6.57;45.49
76166;BME280;65085;46.718;20.136;2023-02-11T08:55:47;102656.31;;;6.85;44.86
76166;BME280;65085;46.718;20.136;2023-02-11T08:58:52;102655.31;;;7.26;44.78
76166;BME280;65085;46.718;20.136;2023-02-11T09:01:55;102664.94;;;7.46;44.96
76166;BME280;65085;46.718;20.136;2023-02-11T09:04:58;102657.53;;;7.92;42.94
76166;BME280;65085;46.718;20.136;2023-02-11T09:08:01;102654.66;;;6.89;45.57
76166;BME280;65085;46.718;20.136;2023-02-11T09:11:04;102647.13;;;6.86;44.12
76166;BME280;65085;46.718;20.136;2023-02-11T09:14:15;102650.41;;;6.33;46.29
76166;BME280;65085;46.718;20.136;2023-02-11T09:17:18;102644.22;;;6.14;47.12
76166;BME280;65085;46.718;20.136;2023-02-11T09:20:20;102641.59;;;6.46;46.90
76166;BME280;65085;46.718;20.136;2023-02-11T09:23:23;102645.72;;;6.57;45.92
76166;BME280;65085;46.718;20.136;2023-02-11T09:26:28;102642.03;;;6.53;45.51
76166;BME280;65085;46.718;20.136;2023-02-11T09:29:34;102640.31;;;6.57;45.30
76166;BME280;65085;46.718;20.136;2023-02-11T09:32:36;102640.88;;;6.22;45.43
76166;BME280;65085;46.718;20.136;2023-02-11T09:35:39;102639.78;;;6.41;46.06
76166;BME280;65085;46.718;20.136;2023-02-11T09:38:42;102624.72;;;6.86;43.64
76166;BME280;65085;46.718;20.136;2023-02-11T09:42:02;102631.88;;;7.22;42.92
76166;BME280;65085;46.718;20.136;2023-02-11T09:45:14;102633.66;;;6.99;43.44
76166;BME280;65085;46.718;20.136;2023-02-11T09:48:20;102625.09;;;7.24;43.01
76166;BME280;65085;46.718;20.136;2023-02-11T09:51:32;102620.72;;;6.96;42.82
76166;BME280;65085;46.718;20.136;2023-02-11T09:54:45;102620.75;;;7.10;44.12
76166;BME280;65085;46.718;20.136;2023-02-11T09:57:54;102614.69;;;7.31;43.16
76166;BME280;65085;46.718;20.136;2023-02-11T10:01:03;102610.50;;;6.80;44.49
76166;BME280;65085;46.718;20.136;2023-02-11T10:04:13;102604.97;;;6.72;44.78
76166;BME280;65085;46.718;20.136;2023-02-11T10:07:24;102601.66;;;6.75;44.80
76166;BME280;65085;46.718;20.136;2023-02-11T10:10:39;102599.28;;;6.73;43.46
76166;BME280;65085;46.718;20.136;2023-02-11T10:13:51;102586.09;;;6.53;44.89
76166;BME280;65085;46.718;20.136;2023-02-11T10:17:05;102574.16;;;6.73;43.13
76166;BME280;65085;46.718;20.136;2023-02-11T10:20:22;102575.13;;;7.22;42.86
76166;BME280;65085;46.718;20.136;2023-02-11T10:23:32;102562.34;;;7.76;41.42
76166;BME280;65085;46.718;20.136;2023-02-11T10:26:37;102555.75;;;7.69;40.15
76166;BME280;65085;46.718;20.136;2023-02-11T10:29:45;102553.91;;;8.13;39.53
76166;BME280;65085;46.718;20.136;2023-02-11T10:32:54;102555.13;;;8.73;38.42
76166;BME280;65085;46.718;20.136;2023-02-11T10:35:58;102556.13;;;8.86;37.64
76166;BME280;65085;46.718;20.136;2023-02-11T10:39:09;102544.47;;;9.16;39.20
76166;BME280;65085;46.718;20.136;2023-02-11T10:42:14;102537.50;;;8.84;39.18
76166;BME280;65085;46.718;20.136;2023-02-11T10:45:22;102533.78;;;8.72;38.41
76166;BME280;65085;46.718;20.136;2023-02-11T10:48:42;102537.53;;;8.62;38.78
76166;BME280;65085;46.718;20.136;2023-02-11T10:51:46;102531.94;;;8.59;38.16
76166;BME280;65085;46.718;20.136;2023-02-11T10:55:00;102529.41;;;8.32;39.53
76166;BME280;65085;46.718;20.136;2023-02-11T10:58:03;102520.25;;;7.84;39.22
76166;BME280;65085;46.718;20.136;2023-02-11T11:01:06;102513.44;;;7.73;40.15
76166;BME280;65085;46.718;20.136;2023-02-11T11:04:39;102503.91;;;8.63;38.85
76166;BME280;65085;46.718;20.136;2023-02-11T11:07:52;102498.28;;;9.55;35.96
76166;BME280;65085;46.718;20.136;2023-02-11T11:11:02;102494.00;;;9.96;35.82
76166;BME280;65085;46.718;20.136;2023-02-11T11:14:17;102484.81;;;9.07;36.06
76166;BME280;65085;46.718;20.136;2023-02-11T11:17:21;102494.28;;;8.49;37.34
76166;BME280;65085;46.718;20.136;2023-02-11T11:20:27;102487.47;;;8.07;38.53
76166;BME280;65085;46.718;20.136;2023-02-11T11:23:31;102487.63;;;7.67;39.42
76166;BME280;65085;46.718;20.136;2023-02-11T11:26:40;102483.91;;;7.98;40.34
76166;BME280;65085;46.718;20.136;2023-02-11T11:29:46;102481.69;;;8.22;38.96
76166;BME280;65085;46.718;20.136;2023-02-11T11:32:50;102484.13;;;8.93;37.19
76166;BME280;65085;46.718;20.136;2023-02-11T11:35:59;102487.63;;;9.67;35.74
76166;BME280;65085;46.718;20.136;2023-02-11T11:39:16;102479.97;;;10.57;34.40
76166;BME280;65085;46.718;20.136;2023-02-11T11:42:24;102481.53;;;11.04;32.89
76166;BME280;65085;46.718;20.136;2023-02-11T11:45:27;102463.34;;;11.25;32.26
76166;BME280;65085;46.718;20.136;2023-02-11T11:48:33;102461.31;;;11.83;31.48
76166;BME280;65085;46.718;20.136;2023-02-11T11:51:40;102466.25;;;11.69;31.34
76166;BME280;65085;46.718;20.136;2023-02-11T11:54:49;102460.97;;;10.94;31.61
76166;BME280;65085;46.718;20.136;2023-02-11T11:57:55;102443.44;;;11.33;30.44
76166;BME280;65085;46.718;20.136;2023-02-11T12:01:05;102445.22;;;11.49;30.81
76166;BME280;65085;46.718;20.136;2023-02-11T12:04:30;102432.44;;;11.70;30.13
76166;BME280;65085;46.718;20.136;2023-02-11T12:07:49;102439.63;;;11.46;29.93
76166;BME280;65085;46.718;20.136;2023-02-11T12:11:02;102440.31;;;10.27;31.76
76166;BME280;65085;46.718;20.136;2023-02-11T12:14:16;102434.91;;;9.34;33.10
76166;BME280;65085;46.718;20.136;2023-02-11T12:17:33;102434.94;;;8.69;34.68
76166;BME280;65085;46.718;20.136;2023-02-11T12:20:49;102428.69;;;8.60;35.70
76166;BME280;65085;46.718;20.136;2023-02-11T12:24:05;102419.03;;;8.37;36.10
76166;BME280;65085;46.718;20.136;2023-02-11T12:27:14;102409.44;;;8.09;36.97
76166;BME280;65085;46.718;20.136;2023-02-11T12:34:09;102403.81;;;8.19;35.75
76166;BME280;65085;46.718;20.136;2023-02-11T12:37:27;102396.25;;;8.08;37.02
76166;BME280;65085;46.718;20.136;2023-02-11T12:40:45;102390.06;;;8.16;37.22
76166;BME280;65085;46.718;20.136;2023-02-11T12:43:48;102392.63;;;7.90;37.64
76166;BME280;65085;46.718;20.136;2023-02-11T12:46:57;102381.72;;;8.26;36.71
76166;BME280;65085;46.718;20.136;2023-02-11T12:50:13;102367.72;;;8.80;35.91
76166;BME280;65085;46.718;20.136;2023-02-11T12:53:33;102362.59;;;8.78;35.91
76166;BME280;65085;46.718;20.136;2023-02-11T12:56:45;102356.53;;;8.25;37.09
76166;BME280;65085;46.718;20.136;2023-02-11T12:59:55;102369.09;;;7.91;38.28
76166;BME280;65085;46.718;20.136;2023-02-11T13:03:04;102352.03;;;7.60;39.30
76166;BME280;65085;46.718;20.136;2023-02-11T13:06:14;102347.22;;;7.35;39.29
76166;BME280;65085;46.718;20.136;2023-02-11T13:09:23;102343.63;;;7.04;40.14
76166;BME280;65085;46.718;20.136;2023-02-11T13:12:28;102347.84;;;6.96;40.18
76166;BME280;65085;46.718;20.136;2023-02-11T13:15:55;102349.63;;;7.01;40.26
76166;BME280;65085;46.718;20.136;2023-02-11T13:19:07;102346.34;;;7.04;40.55
76166;BME280;65085;46.718;20.136;2023-02-11T13:22:17;102330.88;;;7.40;40.04
76166;BME280;65085;46.718;20.136;2023-02-11T13:25:28;102329.56;;;7.81;39.33
76166;BME280;65085;46.718;20.136;2023-02-11T13:28:41;102335.19;;;8.24;39.20
76166;BME280;65085;46.718;20.136;2023-02-11T13:31:52;102331.72;;;8.32;37.89
76166;BME280;65085;46.718;20.136;2023-02-11T13:34:56;102329.59;;;8.85;36.95
76166;BME280;65085;46.718;20.136;2023-02-11T13:38:01;102316.38;;;9.09;36.91
76166;BME280;65085;46.718;20.136;2023-02-11T13:41:16;102315.88;;;8.81;36.36
76166;BME280;65085;46.718;20.136;2023-02-11T13:44:24;102313.66;;;8.75;36.64
76166;BME280;65085;46.718;20.136;2023-02-11T13:47:30;102299.94;;;9.39;35.68
76166;BME280;65085;46.718;20.136;2023-02-11T13:50:37;102293.09;;;9.96;35.23
76166;BME280;65085;46.718;20.136;2023-02-11T13:53:45;102289.72;;;10.08;33.30
76166;BME280;65085;46.718;20.136;2023-02-11T14:00:48;102280.56;;;9.75;34.38
76166;BME280;65085;46.718;20.136;2023-02-11T14:04:19;102274.94;;;9.80;34.48
76166;BME280;65085;46.718;20.136;2023-02-11T14:08:10;102282.91;;;10.31;33.47
76166;BME280;65085;46.718;20.136;2023-02-11T14:11:47;102268.63;;;10.83;32.30
76166;BME280;65085;46.718;20.136;2023-02-11T14:18:43;102267.34;;;11.33;32.87
76166;BME280;65085;46.718;20.136;2023-02-11T14:22:01;102265.28;;;10.77;32.64
76166;BME280;65085;46.718;20.136;2023-02-11T14:25:15;102272.25;;;10.17;34.03
76166;BME280;65085;46.718;20.136;2023-02-11T14:28:40;102270.72;;;9.99;34.37
76166;BME280;65085;46.718;20.136;2023-02-11T14:31:53;102277.34;;;9.73;34.90
76166;BME280;65085;46.718;20.136;2023-02-11T14:35:05;102259.47;;;9.80;35.23
76166;BME280;65085;46.718;20.136;2023-02-11T14:38:19;102263.25;;;9.88;35.17
76166;BME280;65085;46.718;20.136;2023-02-11T14:41:26;102254.75;;;10.06;35.09
76166;BME280;65085;46.718;20.136;2023-02-11T14:44:32;102254.75;;;10.06;34.64
76166;BME280;65085;46.718;20.136;2023-02-11T14:47:41;102247.19;;;9.03;36.82
76166;BME280;65085;46.718;20.136;2023-02-11T14:50:50;102250.72;;;8.95;37.04
76166;BME280;65085;46.718;20.136;2023-02-11T14:53:57;102251.50;;;8.87;38.14
76166;BME280;65085;46.718;20.136;2023-02-11T14:57:07;102255.16;;;8.91;37.71
76166;BME280;65085;46.718;20.136;2023-02-11T15:00:16;102255.66;;;8.84;37.55
76166;BME280;65085;46.718;20.136;2023-02-11T15:03:31;102265.63;;;8.33;38.85
76166;BME280;65085;46.718;20.136;2023-02-11T15:06:38;102271.91;;;8.11;38.94
76166;BME280;65085;46.718;20.136;2023-02-11T15:09:43;102272.13;;;7.54;40.42
76166;BME280;65085;46.718;20.136;2023-02-11T15:12:48;102267.25;;;7.12;42.25
76166;BME280;65085;46.718;20.136;2023-02-11T15:15:54;102263.28;;;6.74;43.32
76166;BME280;65085;46.718;20.136;2023-02-11T15:19:03;102244.03;;;6.54;43.99
76166;BME280;65085;46.718;20.136;2023-02-11T15:22:17;102232.28;;;6.23;44.21
76166;BME280;65085;46.718;20.136;2023-02-11T15:25:22;102226.50;;;6.02;44.66
76166;BME280;65085;46.718;20.136;2023-02-11T15:28:27;102227.50;;;5.79;44.79
76166;BME280;65085;46.718;20.136;2023-02-11T15:31:30;102219.47;;;5.61;45.76
76166;BME280;65085;46.718;20.136;2023-02-11T15:34:36;102230.44;;;5.51;46.36
76166;BME280;65085;46.718;20.136;2023-02-11T15:37:42;102226.81;;;5.28;47.00
76166;BME280;65085;46.718;20.136;2023-02-11T15:40:55;102233.63;;;5.07;47.83
76166;BME280;65085;46.718;20.136;2023-02-11T15:43:58;102237.94;;;4.90;48.26
76166;BME280;65085;46.718;20.136;2023-02-11T15:47:01;102239.56;;;4.72;48.78
76166;BME280;65085;46.718;20.136;2023-02-11T15:50:05;102259.06;;;4.64;49.18
76166;BME280;65085;46.718;20.136;2023-02-11T15:53:23;102251.91;;;4.36;50.18
76166;BME280;65085;46.718;20.136;2023-02-11T15:56:28;102249.09;;;4.28;50.83
76166;BME280;65085;46.718;20.136;2023-02-11T15:59:35;102238.19;;;4.14;51.53
76166;BME280;65085;46.718;20.136;2023-02-11T16:02:40;102221.69;;;4.02;51.15
76166;BME280;65085;46.718;20.136;2023-02-11T16:05:48;102217.31;;;3.88;51.86
76166;BME280;65085;46.718;20.136;2023-02-11T16:09:00;102207.97;;;3.80;52.15
76166;BME280;65085;46.718;20.136;2023-02-11T16:12:21;102210.31;;;3.63;53.28
76166;BME280;65085;46.718;20.136;2023-02-11T16:15:36;102210.81;;;3.42;53.68
76166;BME280;65085;46.718;20.136;2023-02-11T16:18:44;102211.25;;;3.26;54.52
76166;BME280;65085;46.718;20.136;2023-02-11T16:22:08;102200.84;;;3.19;54.29
76166;BME280;65085;46.718;20.136;2023-02-11T16:25:18;102208.94;;;3.14;54.31
76166;BME280;65085;46.718;20.136;2023-02-11T16:28:22;102198.72;;;3.16;55.11